sensor_id;sensor_type;location;lat;lon;timestamp;temperature;humidity
35563;DHT22;21665;40.108;18.302;2024-01-30T00:00:08;6.70;99.90
35563;DHT22;21665;40.108;18.302;2024-01-30T00:02:34;6.70;99.90
35563;DHT22;21665;40.108;18.302;2024-01-30T00:05:00;6.60;99.90
35563;DHT22;21665;40.108;18.302;2024-01-30T00:07:27;6.50;99.90
35563;DHT22;21665;40.108;18.302;2024-01-30T00:09:54;6.40;99.90
35563;DHT22;21665;40.108;18.302;2024-01-30T00:12:20;6.40;99.90
35563;DHT22;21665;40.108;18.302;2024-01-30T00:14:46;6.40;99.90
35563;DHT22;21665;40.108;18.302;2024-01-30T00:17:13;6.30;99.90
35563;DHT22;21665;40.108;18.302;2024-01-30T00:19:42;6.30;99.90
35563;DHT22;21665;40.108;18.302;2024-01-30T00:22:08;6.30;99.90
35563;DHT22;21665;40.108;18.302;2024-01-30T00:24:34;6.20;99.90
35563;DHT22;21665;40.108;18.302;2024-01-30T00:27:01;6.10;99.90
35563;DHT22;21665;40.108;18.302;2024-01-30T00:29:27;6.10;99.90
35563;DHT22;21665;40.108;18.302;2024-01-30T00:31:57;6.10;99.90
35563;DHT22;21665;40.108;18.302;2024-01-30T00:34:23;6.00;99.90
35563;DHT22;21665;40.108;18.302;2024-01-30T00:36:49;6.00;99.90
35563;DHT22;21665;40.108;18.302;2024-01-30T00:39:15;6.00;99.90
35563;DHT22;21665;40.108;18.302;2024-01-30T00:41:45;5.90;99.90
35563;DHT22;21665;40.108;18.302;2024-01-30T00:44:11;5.90;99.90
35563;DHT22;21665;40.108;18.302;2024-01-30T00:46:37;5.90;99.90
35563;DHT22;21665;40.108;18.302;2024-01-30T00:49:04;5.90;99.90
35563;DHT22;21665;40.108;18.302;2024-01-30T00:51:30;5.90;99.90
35563;DHT22;21665;40.108;18.302;2024-01-30T00:53:56;5.90;99.90
35563;DHT22;21665;40.108;18.302;2024-01-30T00:56:22;5.80;99.90
35563;DHT22;21665;40.108;18.302;2024-01-30T00:58:49;5.80;99.90
35563;DHT22;21665;40.108;18.302;2024-01-30T01:01:16;5.70;99.90
35563;DHT22;21665;40.108;18.302;2024-01-30T01:03:42;5.70;99.90
35563;DHT22;21665;40.108;18.302;2024-01-30T01:06:09;5.60;99.90
35563;DHT22;21665;40.108;18.302;2024-01-30T01:08:36;5.60;99.90
35563;DHT22;21665;40.108;18.302;2024-01-30T01:11:03;5.50;99.90
35563;DHT22;21665;40.108;18.302;2024-01-30T01:13:29;5.50;99.90
35563;DHT22;21665;40.108;18.302;2024-01-30T01:15:55;5.40;99.90
35563;DHT22;21665;40.108;18.302;2024-01-30T01:18:21;5.50;99.90
35563;DHT22;21665;40.108;18.302;2024-01-30T01:20:48;5.50;99.90
35563;DHT22;21665;40.108;18.302;2024-01-30T01:23:14;5.40;99.90
35563;DHT22;21665;40.108;18.302;2024-01-30T01:25:40;5.50;99.90
35563;DHT22;21665;40.108;18.302;2024-01-30T01:28:06;5.50;99.90
35563;DHT22;21665;40.108;18.302;2024-01-30T01:30:33;5.50;99.90
35563;DHT22;21665;40.108;18.302;2024-01-30T01:32:59;5.50;99.90
35563;DHT22;21665;40.108;18.302;2024-01-30T01:35:28;5.40;99.90
35563;DHT22;21665;40.108;18.302;2024-01-30T01:37:55;5.40;99.90
35563;DHT22;21665;40.108;18.302;2024-01-30T01:40:26;5.40;99.90
35563;DHT22;21665;40.108;18.302;2024-01-30T01:42:53;5.30;99.90
35563;DHT22;21665;40.108;18.302;2024-01-30T01:45:21;5.40;99.90
35563;DHT22;21665;40.108;18.302;2024-01-30T01:47:51;5.40;99.90
35563;DHT22;21665;40.108;18.302;2024-01-30T01:50:20;5.40;99.90
35563;DHT22;21665;40.108;18.302;2024-01-30T01:52:47;5.50;99.90
35563;DHT22;21665;40.108;18.302;2024-01-30T01:55:20;5.60;99.90
35563;DHT22;21665;40.108;18.302;2024-01-30T01:57:52;5.60;99.90
35563;DHT22;21665;40.108;18.302;2024-01-30T02:00:20;5.60;99.90
35563;DHT22;21665;40.108;18.302;2024-01-30T02:02:46;5.70;99.90
35563;DHT22;21665;40.108;18.302;2024-01-30T02:05:14;5.90;99.90
35563;DHT22;21665;40.108;18.302;2024-01-30T02:07:44;6.00;99.90
35563;DHT22;21665;40.108;18.302;2024-01-30T02:10:13;6.00;99.90
35563;DHT22;21665;40.108;18.302;2024-01-30T02:12:40;6.00;99.90
35563;DHT22;21665;40.108;18.302;2024-01-30T02:15:06;5.90;99.90
35563;DHT22;21665;40.108;18.302;2024-01-30T02:17:33;5.90;99.90
35563;DHT22;21665;40.108;18.302;2024-01-30T02:20:00;5.90;99.90
35563;DHT22;21665;40.108;18.302;2024-01-30T02:22:29;5.90;99.90
35563;DHT22;21665;40.108;18.302;2024-01-30T02:24:56;5.90;99.90
35563;DHT22;21665;40.108;18.302;2024-01-30T02:27:22;5.80;99.90
35563;DHT22;21665;40.108;18.302;2024-01-30T02:29:48;5.80;99.90
35563;DHT22;21665;40.108;18.302;2024-01-30T02:32:15;5.70;99.90
35563;DHT22;21665;40.108;18.302;2024-01-30T02:34:41;5.70;99.90
35563;DHT22;21665;40.108;18.302;2024-01-30T02:37:07;5.60;99.90
35563;DHT22;21665;40.108;18.302;2024-01-30T02:39:34;5.60;99.90
35563;DHT22;21665;40.108;18.302;2024-01-30T02:42:00;5.60;99.90
35563;DHT22;21665;40.108;18.302;2024-01-30T02:44:26;5.50;99.90
35563;DHT22;21665;40.108;18.302;2024-01-30T02:47:02;5.50;99.90
35563;DHT22;21665;40.108;18.302;2024-01-30T02:49:28;5.50;99.90
35563;DHT22;21665;40.108;18.302;2024-01-30T02:51:54;5.40;99.90
35563;DHT22;21665;40.108;18.302;2024-01-30T02:54:22;5.40;99.90
35563;DHT22;21665;40.108;18.302;2024-01-30T02:56:48;5.40;99.90
35563;DHT22;21665;40.108;18.302;2024-01-30T02:59:15;5.30;99.90
35563;DHT22;21665;40.108;18.302;2024-01-30T03:01:47;5.30;99.90
35563;DHT22;21665;40.108;18.302;2024-01-30T03:04:14;5.30;99.90
35563;DHT22;21665;40.108;18.302;2024-01-30T03:06:45;5.30;99.90
35563;DHT22;21665;40.108;18.302;2024-01-30T03:09:13;5.30;99.90
35563;DHT22;21665;40.108;18.302;2024-01-30T03:11:39;5.20;99.90
35563;DHT22;21665;40.108;18.302;2024-01-30T03:14:05;5.10;99.90
35563;DHT22;21665;40.108;18.302;2024-01-30T03:16:31;5.10;99.90
35563;DHT22;21665;40.108;18.302;2024-01-30T03:18:58;5.10;99.90
35563;DHT22;21665;40.108;18.302;2024-01-30T03:21:24;5.10;99.90
35563;DHT22;21665;40.108;18.302;2024-01-30T03:23:50;5.00;99.90
35563;DHT22;21665;40.108;18.302;2024-01-30T03:26:16;5.00;99.90
35563;DHT22;21665;40.108;18.302;2024-01-30T03:28:43;4.90;99.90
35563;DHT22;21665;40.108;18.302;2024-01-30T03:31:09;4.80;99.90
35563;DHT22;21665;40.108;18.302;2024-01-30T03:33:36;4.80;99.90
35563;DHT22;21665;40.108;18.302;2024-01-30T03:36:04;4.80;99.90
35563;DHT22;21665;40.108;18.302;2024-01-30T03:38:30;4.90;99.90
35563;DHT22;21665;40.108;18.302;2024-01-30T03:40:59;4.90;99.90
35563;DHT22;21665;40.108;18.302;2024-01-30T03:43:25;4.90;99.90
35563;DHT22;21665;40.108;18.302;2024-01-30T03:45:51;4.90;99.90
35563;DHT22;21665;40.108;18.302;2024-01-30T03:48:18;4.90;99.90
35563;DHT22;21665;40.108;18.302;2024-01-30T03:50:44;4.90;99.90
35563;DHT22;21665;40.108;18.302;2024-01-30T03:53:11;5.00;99.90
35563;DHT22;21665;40.108;18.302;2024-01-30T03:55:37;5.00;99.90
35563;DHT22;21665;40.108;18.302;2024-01-30T03:58:03;5.20;99.90
35563;DHT22;21665;40.108;18.302;2024-01-30T04:00:29;5.20;99.90
35563;DHT22;21665;40.108;18.302;2024-01-30T04:02:55;5.30;99.90
35563;DHT22;21665;40.108;18.302;2024-01-30T04:05:22;5.40;99.90
35563;DHT22;21665;40.108;18.302;2024-01-30T04:07:48;5.50;99.90
35563;DHT22;21665;40.108;18.302;2024-01-30T04:10:14;5.60;99.90
35563;DHT22;21665;40.108;18.302;2024-01-30T04:12:40;5.60;99.90
35563;DHT22;21665;40.108;18.302;2024-01-30T04:15:07;5.70;99.90
35563;DHT22;21665;40.108;18.302;2024-01-30T04:17:33;5.70;99.90
35563;DHT22;21665;40.108;18.302;2024-01-30T04:19:59;5.80;99.90
35563;DHT22;21665;40.108;18.302;2024-01-30T04:22:26;5.70;99.90
35563;DHT22;21665;40.108;18.302;2024-01-30T04:24:52;5.70;99.90
35563;DHT22;21665;40.108;18.302;2024-01-30T04:27:18;5.80;99.90
35563;DHT22;21665;40.108;18.302;2024-01-30T04:29:44;5.80;99.90
35563;DHT22;21665;40.108;18.302;2024-01-30T04:32:11;5.70;99.90
35563;DHT22;21665;40.108;18.302;2024-01-30T04:34:37;5.50;99.90
35563;DHT22;21665;40.108;18.302;2024-01-30T04:37:03;5.50;99.90
35563;DHT22;21665;40.108;18.302;2024-01-30T04:39:29;5.40;99.90
35563;DHT22;21665;40.108;18.302;2024-01-30T04:41:56;5.60;99.90
35563;DHT22;21665;40.108;18.302;2024-01-30T04:44:22;5.60;99.90
35563;DHT22;21665;40.108;18.302;2024-01-30T04:46:48;5.40;99.90
35563;DHT22;21665;40.108;18.302;2024-01-30T04:49:15;5.50;99.90
35563;DHT22;21665;40.108;18.302;2024-01-30T04:51:41;5.50;99.90
35563;DHT22;21665;40.108;18.302;2024-01-30T04:54:07;5.40;99.90
35563;DHT22;21665;40.108;18.302;2024-01-30T04:56:34;5.30;99.90
35563;DHT22;21665;40.108;18.302;2024-01-30T04:59:02;5.30;99.90
35563;DHT22;21665;40.108;18.302;2024-01-30T05:01:29;5.40;99.90
35563;DHT22;21665;40.108;18.302;2024-01-30T05:03:55;5.60;99.90
35563;DHT22;21665;40.108;18.302;2024-01-30T05:06:25;5.80;99.90
35563;DHT22;21665;40.108;18.302;2024-01-30T05:08:52;6.10;99.90
35563;DHT22;21665;40.108;18.302;2024-01-30T05:11:18;6.30;99.90
35563;DHT22;21665;40.108;18.302;2024-01-30T05:13:44;6.40;99.90
35563;DHT22;21665;40.108;18.302;2024-01-30T05:16:11;6.40;99.90
35563;DHT22;21665;40.108;18.302;2024-01-30T05:18:37;6.40;99.90
35563;DHT22;21665;40.108;18.302;2024-01-30T05:21:05;6.50;99.90
35563;DHT22;21665;40.108;18.302;2024-01-30T05:23:31;6.40;99.90
35563;DHT22;21665;40.108;18.302;2024-01-30T05:25:57;6.30;99.90
35563;DHT22;21665;40.108;18.302;2024-01-30T05:28:27;6.30;99.90
35563;DHT22;21665;40.108;18.302;2024-01-30T05:30:53;6.30;99.90
35563;DHT22;21665;40.108;18.302;2024-01-30T05:33:19;6.20;99.90
35563;DHT22;21665;40.108;18.302;2024-01-30T05:35:45;6.20;99.90
35563;DHT22;21665;40.108;18.302;2024-01-30T05:38:12;6.20;99.90
35563;DHT22;21665;40.108;18.302;2024-01-30T05:40:38;6.10;99.90
35563;DHT22;21665;40.108;18.302;2024-01-30T05:43:04;6.00;99.90
35563;DHT22;21665;40.108;18.302;2024-01-30T05:45:30;5.90;99.90
35563;DHT22;21665;40.108;18.302;2024-01-30T05:47:57;5.90;99.90
35563;DHT22;21665;40.108;18.302;2024-01-30T05:50:23;6.00;99.90
35563;DHT22;21665;40.108;18.302;2024-01-30T05:52:53;5.90;99.90
35563;DHT22;21665;40.108;18.302;2024-01-30T05:55:19;5.90;99.90
35563;DHT22;21665;40.108;18.302;2024-01-30T05:57:45;5.80;99.90
35563;DHT22;21665;40.108;18.302;2024-01-30T06:00:12;5.80;99.90
35563;DHT22;21665;40.108;18.302;2024-01-30T06:02:38;5.80;99.90
35563;DHT22;21665;40.108;18.302;2024-01-30T06:05:05;5.80;99.90
35563;DHT22;21665;40.108;18.302;2024-01-30T06:07:34;5.80;99.90
35563;DHT22;21665;40.108;18.302;2024-01-30T06:10:01;5.80;99.90
35563;DHT22;21665;40.108;18.302;2024-01-30T06:12:28;6.00;99.90
35563;DHT22;21665;40.108;18.302;2024-01-30T06:14:54;6.10;99.90
35563;DHT22;21665;40.108;18.302;2024-01-30T06:17:25;6.20;99.90
35563;DHT22;21665;40.108;18.302;2024-01-30T06:19:52;6.30;99.90
35563;DHT22;21665;40.108;18.302;2024-01-30T06:22:18;6.30;99.90
35563;DHT22;21665;40.108;18.302;2024-01-30T06:24:44;6.30;99.90
35563;DHT22;21665;40.108;18.302;2024-01-30T06:27:11;6.30;99.90
35563;DHT22;21665;40.108;18.302;2024-01-30T06:29:37;6.20;99.90
35563;DHT22;21665;40.108;18.302;2024-01-30T06:32:04;6.20;99.90
35563;DHT22;21665;40.108;18.302;2024-01-30T06:34:30;6.30;99.90
35563;DHT22;21665;40.108;18.302;2024-01-30T06:36:56;6.30;99.90
35563;DHT22;21665;40.108;18.302;2024-01-30T06:39:22;6.30;99.90
35563;DHT22;21665;40.108;18.302;2024-01-30T06:41:49;6.40;99.90
35563;DHT22;21665;40.108;18.302;2024-01-30T06:44:15;6.40;99.90
35563;DHT22;21665;40.108;18.302;2024-01-30T06:46:42;6.70;99.90
35563;DHT22;21665;40.108;18.302;2024-01-30T06:49:08;6.90;99.90
35563;DHT22;21665;40.108;18.302;2024-01-30T06:51:35;7.20;99.90
35563;DHT22;21665;40.108;18.302;2024-01-30T06:54:01;7.40;99.90
35563;DHT22;21665;40.108;18.302;2024-01-30T06:56:28;7.70;99.90
35563;DHT22;21665;40.108;18.302;2024-01-30T06:58:55;7.90;99.90
35563;DHT22;21665;40.108;18.302;2024-01-30T07:01:28;8.10;99.90
35563;DHT22;21665;40.108;18.302;2024-01-30T07:03:55;8.20;99.90
35563;DHT22;21665;40.108;18.302;2024-01-30T07:06:22;8.50;99.90
35563;DHT22;21665;40.108;18.302;2024-01-30T07:08:52;8.70;99.90
35563;DHT22;21665;40.108;18.302;2024-01-30T07:11:20;8.80;99.90
35563;DHT22;21665;40.108;18.302;2024-01-30T07:13:49;9.10;99.90
35563;DHT22;21665;40.108;18.302;2024-01-30T07:16:16;9.20;99.90
35563;DHT22;21665;40.108;18.302;2024-01-30T07:18:43;9.30;99.90
35563;DHT22;21665;40.108;18.302;2024-01-30T07:21:10;9.40;99.90
35563;DHT22;21665;40.108;18.302;2024-01-30T07:23:36;9.70;99.90
35563;DHT22;21665;40.108;18.302;2024-01-30T07:26:05;9.80;99.90
35563;DHT22;21665;40.108;18.302;2024-01-30T07:28:33;9.60;99.90
35563;DHT22;21665;40.108;18.302;2024-01-30T07:31:01;9.80;99.90
35563;DHT22;21665;40.108;18.302;2024-01-30T07:33:31;9.90;99.90
35563;DHT22;21665;40.108;18.302;2024-01-30T07:35:58;9.80;99.90
35563;DHT22;21665;40.108;18.302;2024-01-30T07:38:25;10.00;99.90
35563;DHT22;21665;40.108;18.302;2024-01-30T07:40:51;9.90;99.90
35563;DHT22;21665;40.108;18.302;2024-01-30T07:43:17;10.10;99.90
35563;DHT22;21665;40.108;18.302;2024-01-30T07:45:46;10.10;99.90
35563;DHT22;21665;40.108;18.302;2024-01-30T07:48:12;10.00;99.90
35563;DHT22;21665;40.108;18.302;2024-01-30T07:50:40;10.20;99.90
35563;DHT22;21665;40.108;18.302;2024-01-30T07:53:06;10.10;99.90
35563;DHT22;21665;40.108;18.302;2024-01-30T07:55:33;10.00;99.90
35563;DHT22;21665;40.108;18.302;2024-01-30T07:58:00;10.10;99.90
35563;DHT22;21665;40.108;18.302;2024-01-30T08:00:27;10.10;99.90
35563;DHT22;21665;40.108;18.302;2024-01-30T08:02:55;9.90;99.90
35563;DHT22;21665;40.108;18.302;2024-01-30T08:05:22;10.00;99.90
35563;DHT22;21665;40.108;18.302;2024-01-30T08:07:50;10.30;99.90
35563;DHT22;21665;40.108;18.302;2024-01-30T08:10:16;10.40;99.90
35563;DHT22;21665;40.108;18.302;2024-01-30T08:12:47;10.30;99.90
35563;DHT22;21665;40.108;18.302;2024-01-30T08:15:13;10.30;99.90
35563;DHT22;21665;40.108;18.302;2024-01-30T08:17:40;10.30;99.90
35563;DHT22;21665;40.108;18.302;2024-01-30T08:20:07;10.30;99.90
35563;DHT22;21665;40.108;18.302;2024-01-30T08:22:34;10.20;99.90
35563;DHT22;21665;40.108;18.302;2024-01-30T08:25:01;10.10;99.90
35563;DHT22;21665;40.108;18.302;2024-01-30T08:27:28;10.20;99.90
35563;DHT22;21665;40.108;18.302;2024-01-30T08:30:06;10.30;99.90
35563;DHT22;21665;40.108;18.302;2024-01-30T08:32:33;10.10;99.90
35563;DHT22;21665;40.108;18.302;2024-01-30T08:35:00;10.30;99.90
35563;DHT22;21665;40.108;18.302;2024-01-30T08:37:30;10.20;99.90
35563;DHT22;21665;40.108;18.302;2024-01-30T08:39:56;10.30;99.90
35563;DHT22;21665;40.108;18.302;2024-01-30T08:42:23;10.50;99.90
35563;DHT22;21665;40.108;18.302;2024-01-30T08:44:49;10.50;99.90
35563;DHT22;21665;40.108;18.302;2024-01-30T08:47:17;10.30;99.90
35563;DHT22;21665;40.108;18.302;2024-01-30T08:49:44;10.30;99.90
35563;DHT22;21665;40.108;18.302;2024-01-30T08:52:11;10.10;99.90
35563;DHT22;21665;40.108;18.302;2024-01-30T08:54:37;10.00;99.90
35563;DHT22;21665;40.108;18.302;2024-01-30T08:57:06;10.10;99.90
35563;DHT22;21665;40.108;18.302;2024-01-30T08:59:33;10.20;99.90
35563;DHT22;21665;40.108;18.302;2024-01-30T09:01:59;10.20;99.90
35563;DHT22;21665;40.108;18.302;2024-01-30T09:04:26;10.00;99.90
35563;DHT22;21665;40.108;18.302;2024-01-30T09:06:52;10.10;99.90
35563;DHT22;21665;40.108;18.302;2024-01-30T09:09:18;10.00;99.90
35563;DHT22;21665;40.108;18.302;2024-01-30T09:11:48;10.20;99.90
35563;DHT22;21665;40.108;18.302;2024-01-30T09:14:16;10.10;99.90
35563;DHT22;21665;40.108;18.302;2024-01-30T09:16:54;10.10;99.90
